sensor_id;sensor_type;location;lat;lon;timestamp;pressure;altitude;pressure_sealevel;temperature;humidity
21520;BME280;10921;53.614;9.882;2023-04-09T00:01:14;102576.69;;;9.95;79.05
21520;BME280;10921;53.614;9.882;2023-04-09T00:03:41;102575.19;;;9.91;79.02
21520;BME280;10921;53.614;9.882;2023-04-09T00:06:10;102574.13;;;9.93;79.64
21520;BME280;10921;53.614;9.882;2023-04-09T00:08:36;102575.19;;;9.91;79.22
21520;BME280;10921;53.614;9.882;2023-04-09T00:11:03;102549.38;;;9.77;79.58
21520;BME280;10921;53.614;9.882;2023-04-09T00:13:30;102579.75;;;9.88;79.46
21520;BME280;10921;53.614;9.882;2023-04-09T00:16:05;102566.59;;;9.85;79.79
21520;BME280;10921;53.614;9.882;2023-04-09T00:18:32;102544.41;;;9.71;79.86
21520;BME280;10921;53.614;9.882;2023-04-09T00:20:58;102547.16;;;9.69;79.71
21520;BME280;10921;53.614;9.882;2023-04-09T00:23:25;102547.25;;;9.68;80.10
21520;BME280;10921;53.614;9.882;2023-04-09T00:25:51;102568.41;;;9.85;79.99
21520;BME280;10921;53.614;9.882;2023-04-09T00:28:18;102494.72;;;9.41;80.13
21520;BME280;10921;53.614;9.882;2023-04-09T00:30:44;102566.69;;;9.84;80.32
21520;BME280;10921;53.614;9.882;2023-04-09T00:33:11;102564.22;;;9.81;80.58
21520;BME280;10921;53.614;9.882;2023-04-09T00:35:37;102531.53;;;9.63;80.63
21520;BME280;10921;53.614;9.882;2023-04-09T00:38:04;102562.50;;;9.80;80.43
21520;BME280;10921;53.614;9.882;2023-04-09T00:40:31;102542.69;;;9.70;80.91
21520;BME280;10921;53.614;9.882;2023-04-09T00:42:57;102567.75;;;9.81;80.74
21520;BME280;10921;53.614;9.882;2023-04-09T00:45:24;102513.75;;;9.49;81.00
21520;BME280;10921;53.614;9.882;2023-04-09T00:47:50;102562.50;;;9.80;81.09
21520;BME280;10921;53.614;9.882;2023-04-09T00:50:17;102559.19;;;9.76;80.83
21520;BME280;10921;53.614;9.882;2023-04-09T00:52:44;102566.03;;;9.80;81.36
21520;BME280;10921;53.614;9.882;2023-04-09T00:55:11;102560.69;;;9.80;80.94
21520;BME280;10921;53.614;9.882;2023-04-09T00:57:38;102550.13;;;9.79;81.44
21520;BME280;10921;53.614;9.882;2023-04-09T01:00:05;102514.31;;;9.55;81.41
21520;BME280;10921;53.614;9.882;2023-04-09T01:02:33;102547.00;;;9.72;81.52
21520;BME280;10921;53.614;9.882;2023-04-09T01:05:00;102538.31;;;9.69;81.56
21520;BME280;10921;53.614;9.882;2023-04-09T01:10:48;102551.06;;;9.78;82.73
21520;BME280;10921;53.614;9.882;2023-04-09T01:13:19;102559.19;;;9.91;81.50
21520;BME280;10921;53.614;9.882;2023-04-09T01:15:55;102558.97;;;9.79;82.30
21520;BME280;10921;53.614;9.882;2023-04-09T01:18:48;102562.81;;;9.75;82.44
21520;BME280;10921;53.614;9.882;2023-04-09T01:21:19;102563.84;;;9.73;81.88
21520;BME280;10921;53.614;9.882;2023-04-09T01:24:25;102568.13;;;9.75;83.29
21520;BME280;10921;53.614;9.882;2023-04-09T01:27:05;102494.53;;;9.30;83.23
21520;BME280;10921;53.614;9.882;2023-04-09T01:29:34;102556.38;;;9.64;82.52
21520;BME280;10921;53.614;9.882;2023-04-09T01:32:04;102557.16;;;9.66;83.05
21520;BME280;10921;53.614;9.882;2023-04-09T01:34:32;102529.53;;;9.52;82.80
21520;BME280;10921;53.614;9.882;2023-04-09T01:37:01;102523.75;;;9.46;83.24
21520;BME280;10921;53.614;9.882;2023-04-09T01:39:28;102552.00;;;9.63;82.99
21520;BME280;10921;53.614;9.882;2023-04-09T01:41:55;102545.63;;;9.65;83.24
21520;BME280;10921;53.614;9.882;2023-04-09T01:44:23;102553.44;;;9.68;83.52
21520;BME280;10921;53.614;9.882;2023-04-09T01:46:52;102552.59;;;9.68;83.38
21520;BME280;10921;53.614;9.882;2023-04-09T01:49:19;102548.59;;;9.61;83.55
21520;BME280;10921;53.614;9.882;2023-04-09T01:51:47;102561.53;;;9.67;83.58
21520;BME280;10921;53.614;9.882;2023-04-09T01:54:15;102558.00;;;9.66;83.99
21520;BME280;10921;53.614;9.882;2023-04-09T01:56:43;102548.03;;;9.56;84.11
21520;BME280;10921;53.614;9.882;2023-04-09T01:59:10;102556.38;;;9.64;83.97
21520;BME280;10921;53.614;9.882;2023-04-09T02:01:42;102501.34;;;9.34;84.71
21520;BME280;10921;53.614;9.882;2023-04-09T02:04:15;102541.66;;;9.58;84.71
21520;BME280;10921;53.614;9.882;2023-04-09T02:07:04;102548.53;;;9.62;84.64
21520;BME280;10921;53.614;9.882;2023-04-09T02:09:33;102542.59;;;9.57;84.35
21520;BME280;10921;53.614;9.882;2023-04-09T02:12:02;102549.75;;;9.71;84.35
21520;BME280;10921;53.614;9.882;2023-04-09T02:14:31;102543.28;;;9.61;84.37
21520;BME280;10921;53.614;9.882;2023-04-09T02:16:59;102543.63;;;9.55;84.37
21520;BME280;10921;53.614;9.882;2023-04-09T02:19:47;102545.00;;;9.62;85.80
21520;BME280;10921;53.614;9.882;2023-04-09T02:22:15;102498.91;;;9.31;84.76
21520;BME280;10921;53.614;9.882;2023-04-09T02:24:42;102535.56;;;9.56;84.95
21520;BME280;10921;53.614;9.882;2023-04-09T02:27:08;102538.22;;;9.56;84.81
21520;BME280;10921;53.614;9.882;2023-04-09T02:29:35;102501.56;;;9.31;85.12
21520;BME280;10921;53.614;9.882;2023-04-09T02:32:02;102524.13;;;9.54;85.02
21520;BME280;10921;53.614;9.882;2023-04-09T02:34:28;102532.97;;;9.55;85.06
21520;BME280;10921;53.614;9.882;2023-04-09T02:36:55;102529.38;;;9.56;85.18
21520;BME280;10921;53.614;9.882;2023-04-09T02:39:21;102502.78;;;9.40;85.32
21520;BME280;10921;53.614;9.882;2023-04-09T02:41:48;102499.09;;;9.42;85.41
21520;BME280;10921;53.614;9.882;2023-04-09T02:44:14;102527.66;;;9.55;85.42
21520;BME280;10921;53.614;9.882;2023-04-09T02:46:41;102512.03;;;9.48;85.36
21520;BME280;10921;53.614;9.882;2023-04-09T02:49:07;102529.19;;;9.59;85.46
21520;BME280;10921;53.614;9.882;2023-04-09T02:51:34;102533.56;;;9.60;84.77
21520;BME280;10921;53.614;9.882;2023-04-09T02:54:02;102494.03;;;9.38;84.82
21520;BME280;10921;53.614;9.882;2023-04-09T02:56:28;102518.97;;;9.51;85.13
21520;BME280;10921;53.614;9.882;2023-04-09T02:58:55;102519.75;;;9.53;85.37
21520;BME280;10921;53.614;9.882;2023-04-09T03:01:21;102514.59;;;9.50;85.48
21520;BME280;10921;53.614;9.882;2023-04-09T03:03:48;102514.50;;;9.51;85.62
21520;BME280;10921;53.614;9.882;2023-04-09T03:06:15;102504.88;;;9.49;85.77
21520;BME280;10921;53.614;9.882;2023-04-09T03:08:41;102504.69;;;9.52;85.55
21520;BME280;10921;53.614;9.882;2023-04-09T03:11:08;102455.88;;;9.23;85.53
21520;BME280;10921;53.614;9.882;2023-04-09T03:13:34;102504.69;;;9.52;85.50
21520;BME280;10921;53.614;9.882;2023-04-09T03:16:01;102509.09;;;9.53;85.65
21520;BME280;10921;53.614;9.882;2023-04-09T03:18:27;102502.91;;;9.52;85.71
21520;BME280;10921;53.614;9.882;2023-04-09T03:20:54;102500.41;;;9.49;85.52
21520;BME280;10921;53.614;9.882;2023-04-09T03:23:21;102506.50;;;9.51;85.56
21520;BME280;10921;53.614;9.882;2023-04-09T03:25:47;102507.38;;;9.52;85.45
21520;BME280;10921;53.614;9.882;2023-04-09T03:28:13;102477.19;;;9.37;85.79
21520;BME280;10921;53.614;9.882;2023-04-09T03:30:40;102490.06;;;9.45;85.81
21520;BME280;10921;53.614;9.882;2023-04-09T03:33:07;102472.25;;;9.31;85.63
21520;BME280;10921;53.614;9.882;2023-04-09T03:35:33;102507.47;;;9.50;85.57
21520;BME280;10921;53.614;9.882;2023-04-09T03:38:00;102490.41;;;9.39;85.46
21520;BME280;10921;53.614;9.882;2023-04-09T03:40:26;102471.19;;;9.34;85.80
21520;BME280;10921;53.614;9.882;2023-04-09T03:42:52;102505.66;;;9.51;85.83
21520;BME280;10921;53.614;9.882;2023-04-09T03:45:19;102490.91;;;9.45;85.65
21520;BME280;10921;53.614;9.882;2023-04-09T03:47:46;102503.00;;;9.51;85.61
21520;BME280;10921;53.614;9.882;2023-04-09T03:50:12;102509.19;;;9.51;85.64
21520;BME280;10921;53.614;9.882;2023-04-09T03:52:39;102503.84;;;9.51;85.74
21520;BME280;10921;53.614;9.882;2023-04-09T03:55:06;102494.22;;;9.49;85.67
21520;BME280;10921;53.614;9.882;2023-04-09T03:57:32;102508.13;;;9.54;85.61
21520;BME280;10921;53.614;9.882;2023-04-09T03:59:59;102503.66;;;9.55;85.59
21520;BME280;10921;53.614;9.882;2023-04-09T04:02:25;102496.81;;;9.50;85.80
21520;BME280;10921;53.614;9.882;2023-04-09T04:04:52;102501.84;;;9.55;85.89
21520;BME280;10921;53.614;9.882;2023-04-09T04:07:19;102493.88;;;9.55;85.67
21520;BME280;10921;53.614;9.882;2023-04-09T04:09:45;102494.13;;;9.50;85.91
21520;BME280;10921;53.614;9.882;2023-04-09T04:12:12;102507.19;;;9.55;85.73
21520;BME280;10921;53.614;9.882;2023-04-09T04:14:38;102499.19;;;9.55;85.76
21520;BME280;10921;53.614;9.882;2023-04-09T04:17:05;102511.56;;;9.56;85.95
21520;BME280;10921;53.614;9.882;2023-04-09T04:19:31;102510.63;;;9.57;85.81
21520;BME280;10921;53.614;9.882;2023-04-09T04:21:58;102507.19;;;9.55;85.91
21520;BME280;10921;53.614;9.882;2023-04-09T04:24:24;102500.06;;;9.56;85.74
21520;BME280;10921;53.614;9.882;2023-04-09T04:26:51;102501.28;;;9.50;85.79
21520;BME280;10921;53.614;9.882;2023-04-09T04:29:17;102501.28;;;9.50;85.92
21520;BME280;10921;53.614;9.882;2023-04-09T04:31:44;102500.50;;;9.48;85.92
21520;BME280;10921;53.614;9.882;2023-04-09T04:34:11;102513.56;;;9.52;85.81
21520;BME280;10921;53.614;9.882;2023-04-09T04:36:37;102501.28;;;9.50;85.77
21520;BME280;10921;53.614;9.882;2023-04-09T04:39:04;102507.38;;;9.52;85.85
21520;BME280;10921;53.614;9.882;2023-04-09T04:41:30;102513.56;;;9.52;86.27
21520;BME280;10921;53.614;9.882;2023-04-09T04:43:57;102463.84;;;9.23;85.87
21520;BME280;10921;53.614;9.882;2023-04-09T04:46:23;102510.13;;;9.50;86.24
21520;BME280;10921;53.614;9.882;2023-04-09T04:48:50;102500.22;;;9.38;85.88
21520;BME280;10921;53.614;9.882;2023-04-09T04:51:16;102520.59;;;9.53;85.90
21520;BME280;10921;53.614;9.882;2023-04-09T04:53:43;102524.97;;;9.55;85.77
21520;BME280;10921;53.614;9.882;2023-04-09T04:56:13;102505.28;;;9.43;86.38
21520;BME280;10921;53.614;9.882;2023-04-09T04:58:40;102526.13;;;9.50;85.79
21520;BME280;10921;53.614;9.882;2023-04-09T05:01:07;102531.44;;;9.50;86.01
21520;BME280;10921;53.614;9.882;2023-04-09T05:03:34;102501.25;;;9.36;85.88
21520;BME280;10921;53.614;9.882;2023-04-09T05:06:00;102519.28;;;9.46;86.00
21520;BME280;10921;53.614;9.882;2023-04-09T05:08:27;102532.31;;;9.51;85.94
21520;BME280;10921;53.614;9.882;2023-04-09T05:10:53;102516.31;;;9.51;86.13
21520;BME280;10921;53.614;9.882;2023-04-09T05:13:22;102485.56;;;9.31;86.00
21520;BME280;10921;53.614;9.882;2023-04-09T05:15:49;102471.25;;;9.18;85.97
21520;BME280;10921;53.614;9.882;2023-04-09T05:18:18;102493.19;;;9.37;86.37
21520;BME280;10921;53.614;9.882;2023-04-09T05:20:45;102519.94;;;9.50;85.94
21520;BME280;10921;53.614;9.882;2023-04-09T05:23:11;102523.25;;;9.53;86.12
21520;BME280;10921;53.614;9.882;2023-04-09T05:25:38;102520.78;;;9.50;86.04
21520;BME280;10921;53.614;9.882;2023-04-09T05:28:04;102528.50;;;9.55;86.12
21520;BME280;10921;53.614;9.882;2023-04-09T05:30:31;102516.22;;;9.52;85.81
21520;BME280;10921;53.614;9.882;2023-04-09T05:32:58;102532.78;;;9.58;85.75
21520;BME280;10921;53.614;9.882;2023-04-09T05:35:24;102526.53;;;9.59;85.67
21520;BME280;10921;53.614;9.882;2023-04-09T05:37:51;102518.13;;;9.50;85.81
21520;BME280;10921;53.614;9.882;2023-04-09T05:40:17;102530.91;;;9.60;85.54
21520;BME280;10921;53.614;9.882;2023-04-09T05:42:44;102518.13;;;9.50;85.78
21520;BME280;10921;53.614;9.882;2023-04-09T05:45:10;102532.63;;;9.61;85.72
21520;BME280;10921;53.614;9.882;2023-04-09T05:47:36;102525.47;;;9.61;85.76
21520;BME280;10921;53.614;9.882;2023-04-09T05:50:04;102496.69;;;9.38;85.83
21520;BME280;10921;53.614;9.882;2023-04-09T05:52:31;102531.75;;;9.60;86.12
21520;BME280;10921;53.614;9.882;2023-04-09T05:54:57;102536.88;;;9.63;86.10
21520;BME280;10921;53.614;9.882;2023-04-09T05:57:24;102528.88;;;9.63;85.81
21520;BME280;10921;53.614;9.882;2023-04-09T05:59:51;102529.88;;;9.62;86.13
21520;BME280;10921;53.614;9.882;2023-04-09T06:02:17;102535.84;;;9.66;85.66
21520;BME280;10921;53.614;9.882;2023-04-09T06:04:44;102549.06;;;9.67;85.53
21520;BME280;10921;53.614;9.882;2023-04-09T06:07:10;102536.88;;;9.63;85.41
21520;BME280;10921;53.614;9.882;2023-04-09T06:09:37;102545.72;;;9.64;85.15
21520;BME280;10921;53.614;9.882;2023-04-09T06:12:03;102543.63;;;9.55;85.22
21520;BME280;10921;53.614;9.882;2023-04-09T06:14:30;102537.34;;;9.56;85.09
21520;BME280;10921;53.614;9.882;2023-04-09T06:16:58;102554.03;;;9.59;85.23
21520;BME280;10921;53.614;9.882;2023-04-09T06:19:25;102518.88;;;9.38;85.58
21520;BME280;10921;53.614;9.882;2023-04-09T06:21:51;102531.94;;;9.43;85.54
21520;BME280;10921;53.614;9.882;2023-04-09T06:24:18;102547.44;;;9.50;85.84
21520;BME280;10921;53.614;9.882;2023-04-09T06:26:44;102526.50;;;9.44;86.05
21520;BME280;10921;53.614;9.882;2023-04-09T06:29:11;102557.47;;;9.61;85.84
21520;BME280;10921;53.614;9.882;2023-04-09T06:31:37;102550.50;;;9.59;86.09
21520;BME280;10921;53.614;9.882;2023-04-09T06:34:04;102554.41;;;9.67;86.43
21520;BME280;10921;53.614;9.882;2023-04-09T06:36:32;102545.19;;;9.73;86.93
21520;BME280;10921;53.614;9.882;2023-04-09T06:38:58;102547.34;;;9.80;86.87
21520;BME280;10921;53.614;9.882;2023-04-09T06:41:25;102554.72;;;9.91;87.14
21520;BME280;10921;53.614;9.882;2023-04-09T06:43:51;102558.69;;;9.98;86.67
21520;BME280;10921;53.614;9.882;2023-04-09T06:46:18;102540.22;;;9.95;86.86
21520;BME280;10921;53.614;9.882;2023-04-09T06:48:46;102564.78;;;10.14;86.72
21520;BME280;10921;53.614;9.882;2023-04-09T06:51:13;102559.88;;;10.23;85.99
21520;BME280;10921;53.614;9.882;2023-04-09T06:53:40;102551.72;;;10.24;85.32
21520;BME280;10921;53.614;9.882;2023-04-09T06:56:07;102528.09;;;10.18;85.00
21520;BME280;10921;53.614;9.882;2023-04-09T06:58:33;102546.97;;;10.29;84.93
21520;BME280;10921;53.614;9.882;2023-04-09T07:01:00;102507.72;;;10.17;84.67
21520;BME280;10921;53.614;9.882;2023-04-09T07:03:27;102563.22;;;10.53;84.46
21520;BME280;10921;53.614;9.882;2023-04-09T07:05:54;102520.84;;;10.34;83.95
21520;BME280;10921;53.614;9.882;2023-04-09T07:08:22;102547.47;;;10.63;84.14
21520;BME280;10921;53.614;9.882;2023-04-09T07:10:48;102558.94;;;10.77;83.54
21520;BME280;10921;53.614;9.882;2023-04-09T07:13:15;102568.06;;;10.87;83.77
21520;BME280;10921;53.614;9.882;2023-04-09T07:15:41;102563.94;;;10.96;83.55
21520;BME280;10921;53.614;9.882;2023-04-09T07:18:08;102563.50;;;11.02;82.85
21520;BME280;10921;53.614;9.882;2023-04-09T07:20:35;102563.88;;;11.10;82.37
21520;BME280;10921;53.614;9.882;2023-04-09T07:23:01;102564.09;;;11.20;81.59
21520;BME280;10921;53.614;9.882;2023-04-09T07:25:28;102552.66;;;11.18;81.29
21520;BME280;10921;53.614;9.882;2023-04-09T07:27:54;102570.41;;;11.32;79.98
21520;BME280;10921;53.614;9.882;2023-04-09T07:30:22;102530.66;;;11.14;79.93
21520;BME280;10921;53.614;9.882;2023-04-09T07:32:48;102568.94;;;11.40;79.68
21520;BME280;10921;53.614;9.882;2023-04-09T07:35:15;102561.34;;;11.47;80.45
21520;BME280;10921;53.614;9.882;2023-04-09T07:37:42;102560.81;;;11.54;79.86
21520;BME280;10921;53.614;9.882;2023-04-09T07:40:08;102560.63;;;11.57;78.41
21520;BME280;10921;53.614;9.882;2023-04-09T07:42:37;102532.69;;;11.61;77.62
21520;BME280;10921;53.614;9.882;2023-04-09T07:45:05;102541.78;;;11.72;76.47
21520;BME280;10921;53.614;9.882;2023-04-09T07:47:31;102554.75;;;11.78;76.71
21520;BME280;10921;53.614;9.882;2023-04-09T07:49:58;102564.50;;;11.91;76.10
21520;BME280;10921;53.614;9.882;2023-04-09T07:52:24;102562.97;;;12.00;75.50
21520;BME280;10921;53.614;9.882;2023-04-09T07:54:51;102546.06;;;12.00;74.88
21520;BME280;10921;53.614;9.882;2023-04-09T07:57:18;102568.00;;;12.17;75.04
21520;BME280;10921;53.614;9.882;2023-04-09T07:59:44;102570.09;;;12.25;74.40
21520;BME280;10921;53.614;9.882;2023-04-09T08:02:12;102541.13;;;12.19;73.86
21520;BME280;10921;53.614;9.882;2023-04-09T08:04:40;102562.66;;;12.41;72.96
21520;BME280;10921;53.614;9.882;2023-04-09T08:07:07;102523.41;;;12.29;72.42
21520;BME280;10921;53.614;9.882;2023-04-09T08:09:33;102555.56;;;12.53;72.53
21520;BME280;10921;53.614;9.882;2023-04-09T08:12:00;102553.81;;;12.64;71.87
21520;BME280;10921;53.614;9.882;2023-04-09T08:14:27;102570.16;;;12.73;71.10
21520;BME280;10921;53.614;9.882;2023-04-09T08:16:53;102569.84;;;12.77;70.40
21520;BME280;10921;53.614;9.882;2023-04-09T08:19:20;102569.84;;;12.77;69.43
21520;BME280;10921;53.614;9.882;2023-04-09T08:21:46;102571.69;;;12.88;69.13
21520;BME280;10921;53.614;9.882;2023-04-09T08:24:16;102566.75;;;12.94;69.17
21520;BME280;10921;53.614;9.882;2023-04-09T08:26:43;102550.56;;;12.96;69.19
21520;BME280;10921;53.614;9.882;2023-04-09T08:29:11;102570.78;;;13.00;67.98
21520;BME280;10921;53.614;9.882;2023-04-09T08:31:39;102574.59;;;13.09;67.84
21520;BME280;10921;53.614;9.882;2023-04-09T08:34:05;102575.25;;;13.12;66.99
21520;BME280;10921;53.614;9.882;2023-04-09T08:36:32;102572.44;;;13.14;66.65
21520;BME280;10921;53.614;9.882;2023-04-09T08:39:01;102571.59;;;13.13;66.36
21520;BME280;10921;53.614;9.882;2023-04-09T08:41:28;102571.47;;;13.15;66.44
21520;BME280;10921;53.614;9.882;2023-04-09T08:43:55;102570.00;;;13.11;66.40
21520;BME280;10921;53.614;9.882;2023-04-09T08:46:25;102567.44;;;13.09;66.04
21520;BME280;10921;53.614;9.882;2023-04-09T08:48:52;102568.28;;;13.10;65.51
21520;BME280;10921;53.614;9.882;2023-04-09T08:51:21;102565.72;;;13.08;65.61
21520;BME280;10921;53.614;9.882;2023-04-09T08:53:53;102566.78;;;13.06;65.59
21520;BME280;10921;53.614;9.882;2023-04-09T08:56:21;102566.06;;;13.03;65.62
21520;BME280;10921;53.614;9.882;2023-04-09T08:58:49;102554.22;;;12.95;66.21
21520;BME280;10921;53.614;9.882;2023-04-09T09:01:24;102563.88;;;13.09;66.33
21520;BME280;10921;53.614;9.882;2023-04-09T09:04:00;102571.81;;;13.10;65.65
21520;BME280;10921;53.614;9.882;2023-04-09T09:06:31;102571.53;;;13.02;64.71
21520;BME280;10921;53.614;9.882;2023-04-09T09:09:00;102575.25;;;13.12;65.10
21520;BME280;10921;53.614;9.882;2023-04-09T09:11:27;102581.47;;;13.13;65.46
21520;BME280;10921;53.614;9.882;2023-04-09T09:16:37;102572.84;;;13.20;65.81
21520;BME280;10921;53.614;9.882;2023-04-09T09:21:55;102573.38;;;13.25;64.95
21520;BME280;10921;53.614;9.882;2023-04-09T09:24:22;102568.97;;;13.24;63.92
21520;BME280;10921;53.614;9.882;2023-04-09T09:26:49;102541.38;;;13.11;64.23
21520;BME280;10921;53.614;9.882;2023-04-09T09:29:16;102562.97;;;13.21;64.26
21520;BME280;10921;53.614;9.882;2023-04-09T09:31:50;102581.41;;;13.25;64.89
21520;BME280;10921;53.614;9.882;2023-04-09T09:34:18;102549.75;;;13.07;64.68
21520;BME280;10921;53.614;9.882;2023-04-09T09:36:45;102572.22;;;13.17;64.45
21520;BME280;10921;53.614;9.882;2023-04-09T09:39:13;102571.19;;;13.07;63.87
21520;BME280;10921;53.614;9.882;2023-04-09T09:41:40;102573.34;;;13.01;64.17
21520;BME280;10921;53.614;9.882;2023-04-09T09:44:12;102563.09;;;12.95;65.07
21520;BME280;10921;53.614;9.882;2023-04-09T09:46:56;102566.47;;;12.86;64.97
21520;BME280;10921;53.614;9.882;2023-04-09T09:49:22;102550.56;;;12.72;66.10
21520;BME280;10921;53.614;9.882;2023-04-09T09:51:50;102566.94;;;12.80;66.16
21520;BME280;10921;53.614;9.882;2023-04-09T09:54:21;102550.78;;;12.69;66.54
21520;BME280;10921;53.614;9.882;2023-04-09T09:56:48;102567.25;;;12.99;66.66
21520;BME280;10921;53.614;9.882;2023-04-09T09:59:20;102574.72;;;12.83;66.12
21520;BME280;10921;53.614;9.882;2023-04-09T10:01:58;102570.22;;;12.84;66.70
21520;BME280;10921;53.614;9.882;2023-04-09T10:04:28;102570.47;;;12.81;66.45
21520;BME280;10921;53.614;9.882;2023-04-09T10:06:55;102547.81;;;12.61;66.28
21520;BME280;10921;53.614;9.882;2023-04-09T10:09:22;102571.22;;;12.83;65.94
21520;BME280;10921;53.614;9.882;2023-04-09T10:11:49;102567.78;;;12.81;66.23
21520;BME280;10921;53.614;9.882;2023-04-09T10:14:21;102555.91;;;12.48;66.41
21520;BME280;10921;53.614;9.882;2023-04-09T10:17:00;102495.81;;;12.52;65.92
21520;BME280;10921;53.614;9.882;2023-04-09T10:19:30;102564.94;;;12.95;65.96
21520;BME280;10921;53.614;9.882;2023-04-09T10:22:19;102556.53;;;12.99;66.15
21520;BME280;10921;53.614;9.882;2023-04-09T10:24:48;102558.75;;;13.06;65.36
21520;BME280;10921;53.614;9.882;2023-04-09T10:27:16;102550.72;;;13.06;65.32
21520;BME280;10921;53.614;9.882;2023-04-09T10:29:47;102541.09;;;13.14;65.29
21520;BME280;10921;53.614;9.882;2023-04-09T10:32:19;102535.75;;;13.14;65.90
21520;BME280;10921;53.614;9.882;2023-04-09T10:34:46;102536.41;;;13.18;64.56
21520;BME280;10921;53.614;9.882;2023-04-09T10:37:19;102543.50;;;13.30;65.22
21520;BME280;10921;53.614;9.882;2023-04-09T10:39:47;102520.22;;;13.30;64.80
21520;BME280;10921;53.614;9.882;2023-04-09T10:42:21;102537.97;;;13.55;65.09
21520;BME280;10921;53.614;9.882;2023-04-09T10:45:11;102540.06;;;13.74;64.97
21520;BME280;10921;53.614;9.882;2023-04-09T10:47:41;102539.56;;;13.80;63.05
21520;BME280;10921;53.614;9.882;2023-04-09T10:50:23;102511.03;;;13.79;63.10
21520;BME280;10921;53.614;9.882;2023-04-09T10:52:56;102535.53;;;14.08;62.30
21520;BME280;10921;53.614;9.882;2023-04-09T10:55:31;102540.16;;;14.28;62.88
21520;BME280;10921;53.614;9.882;2023-04-09T10:57:58;102535.50;;;14.41;61.52
21520;BME280;10921;53.614;9.882;2023-04-09T11:00:24;102539.88;;;14.65;61.18
21520;BME280;10921;53.614;9.882;2023-04-09T11:03:20;102536.72;;;14.92;61.32
21520;BME280;10921;53.614;9.882;2023-04-09T11:05:50;102511.13;;;14.97;59.60
21520;BME280;10921;53.614;9.882;2023-04-09T11:08:18;102520.53;;;15.24;59.26
21520;BME280;10921;53.614;9.882;2023-04-09T11:10:44;102515.06;;;15.35;58.00
21520;BME280;10921;53.614;9.882;2023-04-09T11:13:17;102530.31;;;15.66;57.40
21520;BME280;10921;53.614;9.882;2023-04-09T11:15:45;102531.81;;;15.90;57.84
21520;BME280;10921;53.614;9.882;2023-04-09T11:18:30;102528.41;;;16.18;56.45
21520;BME280;10921;53.614;9.882;2023-04-09T11:21:00;102532.69;;;16.30;55.27
21520;BME280;10921;53.614;9.882;2023-04-09T11:23:27;102525.47;;;16.50;54.34
21520;BME280;10921;53.614;9.882;2023-04-09T11:25:54;102525.38;;;16.61;54.52
21520;BME280;10921;53.614;9.882;2023-04-09T11:28:22;102495.56;;;16.53;53.20
21520;BME280;10921;53.614;9.882;2023-04-09T11:30:52;102524.84;;;16.77;53.73
21520;BME280;10921;53.614;9.882;2023-04-09T11:33:19;102525.56;;;16.79;53.00
21520;BME280;10921;53.614;9.882;2023-04-09T11:35:46;102510.66;;;16.75;53.18
21520;BME280;10921;53.614;9.882;2023-04-09T11:38:13;102508.81;;;16.75;53.54
21520;BME280;10921;53.614;9.882;2023-04-09T11:40:41;102505.09;;;16.67;52.84
21520;BME280;10921;53.614;9.882;2023-04-09T11:43:10;102512.63;;;16.73;53.64
21520;BME280;10921;53.614;9.882;2023-04-09T11:45:37;102499.72;;;16.67;54.61
21520;BME280;10921;53.614;9.882;2023-04-09T11:48:04;102505.81;;;16.69;53.48
21520;BME280;10921;53.614;9.882;2023-04-09T11:50:31;102501.13;;;16.80;54.48
21520;BME280;10921;53.614;9.882;2023-04-09T11:52:58;102476.19;;;16.78;53.40
21520;BME280;10921;53.614;9.882;2023-04-09T11:55:26;102490.63;;;17.06;52.68
21520;BME280;10921;53.614;9.882;2023-04-09T11:57:56;102492.28;;;17.27;52.10
21520;BME280;10921;53.614;9.882;2023-04-09T12:00:23;102452.78;;;17.35;51.53
21520;BME280;10921;53.614;9.882;2023-04-09T12:02:58;102473.13;;;17.76;51.10
21520;BME280;10921;53.614;9.882;2023-04-09T12:05:29;102468.13;;;18.09;50.19
21520;BME280;10921;53.614;9.882;2023-04-09T12:08:07;102493.97;;;18.56;49.73
21520;BME280;10921;53.614;9.882;2023-04-09T12:10:35;102493.22;;;18.82;47.64
21520;BME280;10921;53.614;9.882;2023-04-09T12:13:07;102478.97;;;18.97;47.33
21520;BME280;10921;53.614;9.882;2023-04-09T12:15:36;102481.22;;;19.02;46.28
21520;BME280;10921;53.614;9.882;2023-04-09T12:18:07;102463.59;;;18.98;47.20
21520;BME280;10921;53.614;9.882;2023-04-09T12:20:39;102481.47;;;18.91;47.28
21520;BME280;10921;53.614;9.882;2023-04-09T12:23:07;102469.38;;;18.77;47.29
21520;BME280;10921;53.614;9.882;2023-04-09T12:25:44;102463.47;;;18.82;47.79
21520;BME280;10921;53.614;9.882;2023-04-09T12:28:12;102472.28;;;18.84;45.60
21520;BME280;10921;53.614;9.882;2023-04-09T12:30:41;102459.06;;;18.81;45.47
21520;BME280;10921;53.614;9.882;2023-04-09T12:33:08;102466.09;;;18.91;46.02
21520;BME280;10921;53.614;9.882;2023-04-09T12:35:36;102425.25;;;18.77;45.86
21520;BME280;10921;53.614;9.882;2023-04-09T12:38:03;102434.00;;;18.96;45.86
21520;BME280;10921;53.614;9.882;2023-04-09T12:40:30;102452.13;;;19.22;44.99
21520;BME280;10921;53.614;9.882;2023-04-09T12:42:57;102420.81;;;19.19;45.17
21520;BME280;10921;53.614;9.882;2023-04-09T12:45:23;102464.34;;;19.52;44.50
21520;BME280;10921;53.614;9.882;2023-04-09T12:47:50;102458.78;;;19.61;44.77
21520;BME280;10921;53.614;9.882;2023-04-09T12:50:17;102457.00;;;19.70;43.85
21520;BME280;10921;53.614;9.882;2023-04-09T12:52:43;102441.97;;;19.84;44.90
21520;BME280;10921;53.614;9.882;2023-04-09T12:55:10;102401.22;;;19.59;44.66
21520;BME280;10921;53.614;9.882;2023-04-09T12:57:38;102452.34;;;20.05;44.68
21520;BME280;10921;53.614;9.882;2023-04-09T13:00:05;102421.22;;;20.00;43.68
21520;BME280;10921;53.614;9.882;2023-04-09T13:02:33;102409.31;;;20.01;43.59
21520;BME280;10921;53.614;9.882;2023-04-09T13:04:59;102438.56;;;20.48;43.49
21520;BME280;10921;53.614;9.882;2023-04-09T13:07:26;102398.53;;;20.34;42.50
21520;BME280;10921;53.614;9.882;2023-04-09T13:09:55;102424.53;;;20.61;42.30